world map with SJS marked

SJS - Airport

This information may not be accurate or current and is not valid for navigation or flight planning. No warranty of fitness for any purpose is made or implied.

flag of Santa Cruzflag of Bolivia

Donate via PayPal

Additional information is available on the NEW Great Circle Mapper

Location
City:  San JosÚ de Chiquitos, Chiquitos, Santa Cruz, Bolivia
Name:San JosÚ de Chiquitos Airport
ICAO / IATA:SLJE / SJS

Details
Type:Airport (Aerodrome, Airfield)
Latitude:17░49'56"S (-17.832221)
Longitude:60░44'35"W (-60.743055)
Elevation:974 ft (297 m)
Runways:1
Longest:3773 ft (1150 m)

Time
Timezone:UTC+30:08 (DST+32:08)
Local Time:

Weather
METAR:SLJE  041400Z 18008KT 9999 OVC012 25/22 Q1020

Related Locations
Nearby:
Farthest:RPUQ: 12372 mi / 19910 km
Vigan, Luzon Island, PH

Find:

   beyond  
but within

Other Information
Maps:
Sources:

  


 


Great Circle Mapper   Great Circle Mapper
Great Circle Mapper FAQ   Great Circle Mapper FAQ
  Karl's Home Page
KLS▓   KLS▓ Home
   GC on Facebook
Airlines of the World   Airlines of the World
Donate via PayPal


Copyright © 2004-2019, Karl L. Swartz. All rights reserved.
All trademarks mentioned herein belong to their respective owners.

Please see credits for attribution and copyright information.

Karl Swartz <karl@kls2.com>
  Powered by FreeBSD
Valid HTML 4.01!
Labeled with ICRA
hCard Microformat
Geo Microformat